createdAt,value
2018-12-15T00:00:26.568Z,10.37
2018-12-15T00:02:52.831Z,9.50
2018-12-15T00:05:19.118Z,10.27
2018-12-15T00:07:45.651Z,10.60
2018-12-15T00:10:12.062Z,10.40
2018-12-15T00:12:38.367Z,9.53
2018-12-15T00:15:05.890Z,11.50
2018-12-15T00:17:32.202Z,9.83
2018-12-15T00:19:58.467Z,11.30
2018-12-15T00:22:25.964Z,11.07
2018-12-15T00:24:52.273Z,14.80
2018-12-15T00:27:18.448Z,11.63
2018-12-15T00:29:45.036Z,10.97
2018-12-15T00:32:11.334Z,12.50
2018-12-15T00:34:37.642Z,11.40
2018-12-15T00:37:04.161Z,11.40
2018-12-15T00:39:30.359Z,10.97
2018-12-15T00:41:56.548Z,11.40
2018-12-15T00:44:22.945Z,14.57
2018-12-15T00:46:49.112Z,14.20
2018-12-15T00:49:15.321Z,11.13
2018-12-15T00:51:41.766Z,13.13
2018-12-15T00:54:07.966Z,12.47
2018-12-15T00:56:34.159Z,11.63
2018-12-15T00:59:00.574Z,11.10
2018-12-15T01:01:27.673Z,10.50
2018-12-15T01:03:53.950Z,11.97
2018-12-15T01:06:20.500Z,11.17
2018-12-15T01:08:47.142Z,10.47
2018-12-15T01:11:14.153Z,9.47
2018-12-15T01:13:41.166Z,13.30
2018-12-15T01:16:09.907Z,9.87
2018-12-15T01:18:36.795Z,11.60
2018-12-15T01:21:03.255Z,10.80
2018-12-15T01:23:29.430Z,10.93
2018-12-15T01:25:55.587Z,10.37
2018-12-15T01:28:22.103Z,9.37
2018-12-15T01:30:48.424Z,9.93
2018-12-15T01:33:14.578Z,10.13
2018-12-15T01:35:41.050Z,8.90
2018-12-15T01:38:07.329Z,10.13
2018-12-15T01:40:33.586Z,10.07
2018-12-15T01:43:00.056Z,9.80
2018-12-15T01:45:26.472Z,8.27
2018-12-15T01:47:52.735Z,8.50
2018-12-15T01:50:19.703Z,9.90
2018-12-15T01:52:46.033Z,10.13
2018-12-15T01:55:12.201Z,8.40
2018-12-15T01:57:38.899Z,8.60
2018-12-15T02:00:06.384Z,8.93
2018-12-15T02:02:33.394Z,8.90
2018-12-15T02:04:59.946Z,9.37
2018-12-15T02:07:26.199Z,9.07
2018-12-15T02:09:52.495Z,10.40
2018-12-15T02:12:19.170Z,8.27
2018-12-15T02:14:45.478Z,8.47
2018-12-15T02:17:11.766Z,8.73
2018-12-15T02:19:38.064Z,6.97
2018-12-15T02:22:04.351Z,8.47
2018-12-15T02:24:30.402Z,7.97
2018-12-15T02:27:04.056Z,6.40
2018-12-15T02:29:30.360Z,7.40
2018-12-15T02:31:56.636Z,8.03
2018-12-15T02:34:22.989Z,6.40
2018-12-15T02:36:49.190Z,9.57
2018-12-15T02:39:15.355Z,8.47
2018-12-15T02:41:47.205Z,7.37
2018-12-15T02:44:09.649Z,8.17
2018-12-15T02:46:35.951Z,7.43
2018-12-15T02:49:02.222Z,7.33
2018-12-15T02:51:28.507Z,8.03
2018-12-15T02:53:54.602Z,7.23
2018-12-15T02:56:21.662Z,7.77
2018-12-15T02:58:47.942Z,6.40
2018-12-15T03:01:14.205Z,7.87
2018-12-15T03:03:40.339Z,7.50
2018-12-15T03:06:06.726Z,6.53
2018-12-15T03:08:33.041Z,8.93
2018-12-15T03:10:59.661Z,8.67
2018-12-15T03:13:25.807Z,6.27
2018-12-15T03:15:52.583Z,7.33
2018-12-15T03:18:19.378Z,7.20
2018-12-15T03:20:58.282Z,6.20
2018-12-15T03:23:24.863Z,7.57
2018-12-15T03:25:51.559Z,6.23
2018-12-15T03:28:17.924Z,8.07
2018-12-15T03:30:44.165Z,8.17
2018-12-15T03:33:10.369Z,7.57
2018-12-15T03:35:36.531Z,7.33
2018-12-15T03:38:03.683Z,8.23
2018-12-15T03:42:55.545Z,8.90
2018-12-15T03:45:22.082Z,10.10
2018-12-15T03:47:48.333Z,9.73
2018-12-15T03:50:14.402Z,8.10
2018-12-15T03:52:40.707Z,7.67
2018-12-15T03:55:06.958Z,7.47
2018-12-15T03:57:33.034Z,9.17
2018-12-15T03:59:59.693Z,8.50
2018-12-15T04:02:25.933Z,8.33
2018-12-15T04:04:52.355Z,7.30
2018-12-15T04:07:18.750Z,8.23
2018-12-15T04:09:44.949Z,9.07
2018-12-15T04:12:11.215Z,9.23
2018-12-15T04:14:37.621Z,9.10
2018-12-15T04:17:04.166Z,8.53
2018-12-15T04:19:30.508Z,8.03
2018-12-15T04:22:12.283Z,9.40
2018-12-15T04:24:38.358Z,7.80
2018-12-15T04:27:04.693Z,11.07
2018-12-15T04:29:30.960Z,9.80
2018-12-15T04:31:57.114Z,10.57
2018-12-15T04:34:23.246Z,9.40
2018-12-15T04:36:49.719Z,8.47
2018-12-15T04:39:15.870Z,9.63
2018-12-15T04:41:42.037Z,8.83
2018-12-15T04:44:08.491Z,8.57
2018-12-15T04:46:34.682Z,8.40
2018-12-15T04:49:01.236Z,9.43
2018-12-15T04:51:27.617Z,9.50
2018-12-15T04:53:53.845Z,9.03
2018-12-15T04:56:20.135Z,9.17
2018-12-15T04:58:46.518Z,10.07
2018-12-15T05:01:12.861Z,9.73
2018-12-15T05:03:39.155Z,10.67
2018-12-15T05:06:05.740Z,9.93
2018-12-15T05:08:31.930Z,8.70
2018-12-15T05:10:58.225Z,10.43
2018-12-15T05:13:24.658Z,9.67
2018-12-15T05:15:50.854Z,9.57
2018-12-15T05:18:18.274Z,10.50
2018-12-15T05:20:45.287Z,11.10
2018-12-15T05:23:11.443Z,9.53
2018-12-15T05:25:37.605Z,10.93
2018-12-15T05:28:04.456Z,10.47
2018-12-15T05:30:30.638Z,9.67
2018-12-15T05:32:56.952Z,11.83
2018-12-15T05:35:23.180Z,10.20
2018-12-15T05:37:49.429Z,12.50
2018-12-15T05:40:15.578Z,10.47
2018-12-15T05:42:42.221Z,10.27
2018-12-15T05:45:08.471Z,10.57
2018-12-15T05:47:34.721Z,10.53
2018-12-15T05:50:01.643Z,9.60
2018-12-15T05:52:27.815Z,10.33
2018-12-15T05:54:54.098Z,11.30
2018-12-15T05:57:21.038Z,11.47
2018-12-15T05:59:47.133Z,11.30
2018-12-15T06:02:14.135Z,10.43
2018-12-15T06:04:40.434Z,11.20
2018-12-15T06:07:09.034Z,11.73
2018-12-15T06:09:35.288Z,11.13
2018-12-15T06:12:06.250Z,9.77
2018-12-15T06:14:32.414Z,10.07
2018-12-15T06:17:11.943Z,10.80
2018-12-15T06:19:38.751Z,10.20
2018-12-15T06:22:06.118Z,11.47
2018-12-15T06:24:32.631Z,12.27
2018-12-15T06:26:58.663Z,10.87
2018-12-15T06:29:24.740Z,12.00
2018-12-15T06:31:51.086Z,11.83
2018-12-15T06:34:17.446Z,11.10
2018-12-15T06:36:43.617Z,13.47
2018-12-15T06:39:10.081Z,11.97
2018-12-15T06:41:36.354Z,10.97
2018-12-15T06:44:02.751Z,10.50
2018-12-15T06:46:28.855Z,12.27
2018-12-15T06:48:55.053Z,13.27
2018-12-15T06:51:21.266Z,13.30
2018-12-15T06:53:47.616Z,12.63
2018-12-15T06:56:14.223Z,11.87
2018-12-15T06:58:40.442Z,12.30
2018-12-15T07:01:06.916Z,10.77
2018-12-15T07:03:33.240Z,14.17
2018-12-15T07:05:59.404Z,13.23
2018-12-15T07:08:26.270Z,10.33
2018-12-15T07:10:52.433Z,12.20
2018-12-15T07:13:18.730Z,14.17
2018-12-15T07:15:45.282Z,14.27
2018-12-15T07:18:11.351Z,12.33
2018-12-15T07:20:37.991Z,14.07
2018-12-15T07:23:05.397Z,13.07
2018-12-15T07:25:32.691Z,10.90
2018-12-15T07:27:58.912Z,12.83
2018-12-15T07:30:25.838Z,13.43
2018-12-15T07:32:51.960Z,12.83
2018-12-15T07:35:18.319Z,15.03
2018-12-15T07:37:44.644Z,13.10
2018-12-15T07:40:11.022Z,14.10
2018-12-15T07:42:37.181Z,13.80
2018-12-15T07:45:04.417Z,12.20
2018-12-15T07:47:30.766Z,14.63
2018-12-15T07:49:56.946Z,13.97
2018-12-15T07:52:23.532Z,14.43
2018-12-15T07:54:49.742Z,13.13
2018-12-15T07:57:15.943Z,13.27
2018-12-15T07:59:42.293Z,13.40
2018-12-15T08:02:08.685Z,12.87
2018-12-15T08:04:34.884Z,14.20
2018-12-15T08:07:01.467Z,13.70
2018-12-15T08:09:27.767Z,13.13
2018-12-15T08:12:00.122Z,14.20
2018-12-15T08:14:27.062Z,16.10
2018-12-15T08:16:53.262Z,15.60
2018-12-15T08:19:19.441Z,14.83
2018-12-15T08:21:45.800Z,14.13
2018-12-15T08:24:11.952Z,14.50
2018-12-15T08:26:38.144Z,14.10
2018-12-15T08:29:04.727Z,14.93
2018-12-15T08:31:31.041Z,13.97
2018-12-15T08:33:57.250Z,13.90
2018-12-15T08:36:23.810Z,13.43
2018-12-15T08:38:50.089Z,15.43
2018-12-15T08:41:16.350Z,13.93
2018-12-15T08:43:43.481Z,15.57
2018-12-15T08:46:11.832Z,13.47
2018-12-15T08:48:38.102Z,15.63
2018-12-15T08:51:05.081Z,13.67
2018-12-15T08:53:31.255Z,16.07
2018-12-15T08:55:57.514Z,13.13
2018-12-15T08:58:23.738Z,14.90
2018-12-15T09:00:50.680Z,16.17
2018-12-15T09:03:16.888Z,13.07
2018-12-15T09:05:43.634Z,14.20
2018-12-15T09:08:09.965Z,15.70
2018-12-15T09:10:36.289Z,16.43
2018-12-15T09:13:03.047Z,12.87
2018-12-15T09:15:29.311Z,16.33
2018-12-15T09:17:55.543Z,16.00
2018-12-15T09:20:22.157Z,16.10
2018-12-15T09:22:49.959Z,12.83
2018-12-15T09:25:16.614Z,14.27
2018-12-15T09:27:42.944Z,14.30
2018-12-15T09:30:09.322Z,14.53
2018-12-15T09:32:35.558Z,16.50
2018-12-15T09:35:15.827Z,14.87
2018-12-15T09:37:42.440Z,16.20
2018-12-15T09:40:09.237Z,14.50
2018-12-15T09:42:35.656Z,14.77
2018-12-15T09:45:06.632Z,16.07
2018-12-15T09:47:32.902Z,17.57
2018-12-15T09:49:59.267Z,17.37
2018-12-15T09:52:25.671Z,17.43
2018-12-15T09:54:51.917Z,17.50
2018-12-15T09:57:19.186Z,18.63
2018-12-15T09:59:45.650Z,17.83
2018-12-15T10:02:11.907Z,19.47
2018-12-15T10:04:38.353Z,16.90
2018-12-15T10:07:04.826Z,15.80
2018-12-15T10:09:31.038Z,15.30
2018-12-15T10:11:57.288Z,15.70
2018-12-15T10:14:23.378Z,18.33
2018-12-15T10:16:49.661Z,18.33
2018-12-15T10:19:16.278Z,17.60
2018-12-15T10:21:42.576Z,17.07
2018-12-15T10:24:08.619Z,18.00
2018-12-15T10:26:35.161Z,18.20
2018-12-15T10:29:01.497Z,18.60
2018-12-15T10:31:34.041Z,18.47
2018-12-15T10:34:00.609Z,18.40
2018-12-15T10:36:26.903Z,16.73
2018-12-15T10:38:53.094Z,18.47
2018-12-15T10:41:19.926Z,18.20
2018-12-15T10:43:46.072Z,17.23
2018-12-15T10:46:12.345Z,18.63
2018-12-15T10:48:38.739Z,16.83
2018-12-15T10:51:05.285Z,20.43
2018-12-15T10:53:31.618Z,19.33
2018-12-15T10:55:57.887Z,17.37
2018-12-15T10:58:23.989Z,19.67
2018-12-15T11:00:56.563Z,20.20
2018-12-15T11:03:23.098Z,16.27
2018-12-15T11:05:49.258Z,15.73
2018-12-15T11:08:15.617Z,18.17
2018-12-15T11:10:41.967Z,17.43
2018-12-15T11:13:08.250Z,15.73
2018-12-15T11:15:34.527Z,16.67
2018-12-15T11:18:01.809Z,16.33
2018-12-15T11:20:27.983Z,18.60
2018-12-15T11:22:54.243Z,19.57
2018-12-15T11:25:21.906Z,15.57
2018-12-15T11:27:48.549Z,18.00
2018-12-15T11:30:14.871Z,16.50
2018-12-15T11:32:41.822Z,18.50
2018-12-15T11:35:08.249Z,20.80
2018-12-15T11:37:34.503Z,18.37
2018-12-15T11:40:04.973Z,18.10
2018-12-15T11:42:31.167Z,20.70
2018-12-15T11:44:57.372Z,17.20
2018-12-15T11:47:23.928Z,17.57
2018-12-15T11:49:50.276Z,20.90
2018-12-15T11:52:16.347Z,19.43
2018-12-15T11:54:43.633Z,19.27
2018-12-15T11:57:09.811Z,18.40
2018-12-15T11:59:36.091Z,19.10
2018-12-15T12:02:02.730Z,21.93
2018-12-15T12:04:29.000Z,19.10
2018-12-15T12:06:55.238Z,15.33
2018-12-15T12:09:21.681Z,16.83
2018-12-15T12:11:47.937Z,16.60
2018-12-15T12:14:14.185Z,17.53
2018-12-15T12:16:40.567Z,17.47
2018-12-15T12:19:06.713Z,15.00
2018-12-15T12:21:32.897Z,16.50
2018-12-15T12:23:59.477Z,16.20
2018-12-15T12:26:25.734Z,19.87
2018-12-15T12:28:52.586Z,18.03
2018-12-15T12:31:19.055Z,16.50
2018-12-15T12:33:45.210Z,15.17
2018-12-15T12:36:12.175Z,19.23
2018-12-15T12:38:38.820Z,16.40
2018-12-15T12:41:05.089Z,16.23
2018-12-15T12:43:31.376Z,14.77
2018-12-15T12:45:57.874Z,15.83
2018-12-15T12:48:24.186Z,18.33
2018-12-15T12:50:50.472Z,16.67
2018-12-15T12:53:16.715Z,16.27
2018-12-15T12:55:42.970Z,18.03
2018-12-15T12:58:09.270Z,16.33
2018-12-15T13:00:35.767Z,14.83
2018-12-15T13:03:02.091Z,16.80
2018-12-15T13:05:28.432Z,16.73
2018-12-15T13:07:54.987Z,16.73
2018-12-15T13:10:21.290Z,17.27
2018-12-15T13:12:47.987Z,18.20
2018-12-15T13:15:14.204Z,16.70
2018-12-15T13:17:40.458Z,16.13
2018-12-15T13:20:06.729Z,17.43
2018-12-15T13:22:33.619Z,14.37
2018-12-15T13:24:59.861Z,18.57
2018-12-15T13:27:26.288Z,16.53
2018-12-15T13:29:53.066Z,16.63
2018-12-15T13:32:19.320Z,17.30
2018-12-15T13:34:45.465Z,15.57
2018-12-15T13:37:12.060Z,15.17
2018-12-15T13:39:38.236Z,15.80
2018-12-15T13:42:04.549Z,14.07
2018-12-15T13:44:31.090Z,17.23
2018-12-15T13:46:57.365Z,16.03
2018-12-15T13:49:23.728Z,16.37
2018-12-15T13:51:50.176Z,18.97
2018-12-15T13:54:16.364Z,17.83
2018-12-15T13:56:42.659Z,15.70
2018-12-15T13:59:08.986Z,16.63
2018-12-15T14:01:35.149Z,15.80
2018-12-15T14:04:01.369Z,14.97
2018-12-15T14:06:27.645Z,13.53
2018-12-15T14:08:53.785Z,17.90
2018-12-15T14:11:20.048Z,17.13
2018-12-15T14:13:46.601Z,13.63
2018-12-15T14:16:12.944Z,17.23
2018-12-15T14:18:39.126Z,17.23
2018-12-15T14:21:05.486Z,18.87
2018-12-15T14:23:31.641Z,18.37
2018-12-15T14:25:57.811Z,18.57
2018-12-15T14:28:24.219Z,16.00
2018-12-15T14:30:50.842Z,15.43
2018-12-15T14:33:17.102Z,16.20
2018-12-15T14:35:43.466Z,14.77
2018-12-15T14:38:09.681Z,16.10
2018-12-15T14:40:35.962Z,17.90
2018-12-15T14:43:02.308Z,16.67
2018-12-15T14:45:28.473Z,15.63
2018-12-15T14:47:54.744Z,16.03
2018-12-15T14:50:23.444Z,15.80
2018-12-15T14:52:49.658Z,16.47
2018-12-15T14:55:16.355Z,16.87
2018-12-15T14:57:42.689Z,17.30
2018-12-15T15:00:08.957Z,18.57
2018-12-15T15:02:35.223Z,17.03
2018-12-15T15:05:02.046Z,15.83
2018-12-15T15:07:28.145Z,14.63
2018-12-15T15:09:54.497Z,16.63
2018-12-15T15:12:21.026Z,19.20
2018-12-15T15:14:47.110Z,17.20
2018-12-15T15:17:13.458Z,17.53
2018-12-15T15:19:40.087Z,16.90
2018-12-15T15:22:06.241Z,17.83
2018-12-15T15:24:32.575Z,18.87
2018-12-15T15:26:59.176Z,17.07
2018-12-15T15:29:25.550Z,18.03
2018-12-15T15:31:51.664Z,14.73
2018-12-15T15:34:18.099Z,16.67
2018-12-15T15:36:44.413Z,13.87
2018-12-15T15:39:10.695Z,16.67
2018-12-15T15:41:37.297Z,15.30
2018-12-15T15:44:03.618Z,18.97
2018-12-15T15:46:29.823Z,17.60
2018-12-15T15:48:56.419Z,14.80
2018-12-15T15:51:24.200Z,16.07
2018-12-15T15:53:50.788Z,15.33
2018-12-15T15:56:17.685Z,16.83
2018-12-15T15:58:43.962Z,17.57
2018-12-15T16:01:10.256Z,16.60
2018-12-15T16:03:36.641Z,17.87
2018-12-15T16:06:02.899Z,18.60
2018-12-15T16:08:29.150Z,15.53
2018-12-15T16:10:55.698Z,15.33
2018-12-15T16:13:21.873Z,18.40
2018-12-15T16:15:48.162Z,17.47
2018-12-15T16:18:14.613Z,18.70
2018-12-15T16:20:43.356Z,19.23
2018-12-15T16:23:09.274Z,17.47
2018-12-15T16:25:35.785Z,14.97
2018-12-15T16:28:02.091Z,18.00
2018-12-15T16:30:28.338Z,15.40
2018-12-15T16:32:54.821Z,15.90
2018-12-15T16:35:21.058Z,13.73
2018-12-15T16:37:47.242Z,15.57
2018-12-15T16:40:13.904Z,14.57
2018-12-15T16:42:40.182Z,17.53
2018-12-15T16:45:07.591Z,16.73
2018-12-15T16:47:34.258Z,20.03
2018-12-15T16:50:00.606Z,16.90
2018-12-15T16:52:26.923Z,16.90
2018-12-15T16:54:53.569Z,17.90
2018-12-15T16:57:20.451Z,17.60
2018-12-15T16:59:46.808Z,14.20
2018-12-15T17:02:13.166Z,17.00
2018-12-15T17:04:39.419Z,17.63
2018-12-15T17:07:05.718Z,15.47
2018-12-15T17:09:32.494Z,15.50
2018-12-15T17:11:58.792Z,15.03
2018-12-15T17:14:25.113Z,16.17
2018-12-15T17:16:51.408Z,16.27
2018-12-15T17:19:18.047Z,16.57
2018-12-15T17:21:44.453Z,15.53
2018-12-15T17:24:10.853Z,14.93
2018-12-15T17:26:37.118Z,15.37
2018-12-15T17:29:03.434Z,14.77
2018-12-15T17:31:29.954Z,15.13
2018-12-15T17:33:56.214Z,14.07
2018-12-15T17:36:22.369Z,15.23
2018-12-15T17:38:48.673Z,17.23
2018-12-15T17:41:14.858Z,16.20
2018-12-15T17:43:41.073Z,15.23
2018-12-15T17:46:07.383Z,15.13
2018-12-15T17:48:33.742Z,14.17
2018-12-15T17:51:03.228Z,17.27
2018-12-15T17:53:28.516Z,16.73
2018-12-15T17:55:54.812Z,16.27
2018-12-15T17:58:21.120Z,17.40
2018-12-15T18:00:47.391Z,16.37
2018-12-15T18:03:13.645Z,16.67
2018-12-15T18:05:39.931Z,17.03
2018-12-15T18:08:06.134Z,19.03
2018-12-15T18:10:32.292Z,18.37
2018-12-15T18:12:58.466Z,16.50
2018-12-15T18:15:24.840Z,16.70
2018-12-15T18:17:51.042Z,17.50
2018-12-15T18:20:17.325Z,18.37
2018-12-15T18:22:43.741Z,14.97
2018-12-15T18:25:10.298Z,15.07
2018-12-15T18:27:36.597Z,15.57
2018-12-15T18:30:06.470Z,16.03
2018-12-15T18:32:32.661Z,15.47
2018-12-15T18:34:58.848Z,16.73
2018-12-15T18:37:25.381Z,16.13
2018-12-15T18:39:51.644Z,14.83
2018-12-15T18:42:17.903Z,17.00
2018-12-15T18:44:44.112Z,18.53
2018-12-15T18:47:10.261Z,18.97
2018-12-15T18:49:36.443Z,15.70
2018-12-15T18:52:03.557Z,17.53
2018-12-15T18:54:29.807Z,17.97
2018-12-15T18:56:56.375Z,15.87
2018-12-15T18:59:23.554Z,17.23
2018-12-15T19:01:49.835Z,16.00
2018-12-15T19:04:16.146Z,15.27
2018-12-15T19:06:42.382Z,14.33
2018-12-15T19:09:08.642Z,17.13
2018-12-15T19:11:34.958Z,16.40
2018-12-15T19:14:01.456Z,16.63
2018-12-15T19:16:27.757Z,15.33
2018-12-15T19:18:54.031Z,17.57
2018-12-15T19:21:23.057Z,17.23
2018-12-15T19:23:48.753Z,18.33
2018-12-15T19:26:15.026Z,17.13
2018-12-15T19:28:41.785Z,17.77
2018-12-15T19:31:08.493Z,16.50
2018-12-15T19:33:34.697Z,18.67
2018-12-15T19:36:01.214Z,17.80
2018-12-15T19:38:27.486Z,17.07
2018-12-15T19:40:53.662Z,17.33
2018-12-15T19:43:20.025Z,16.83
2018-12-15T19:45:46.229Z,17.27
2018-12-15T19:48:12.553Z,16.03
2018-12-15T19:50:39.128Z,18.53
2018-12-15T19:53:08.687Z,18.93
2018-12-15T19:55:34.972Z,16.20
2018-12-15T19:58:06.645Z,17.37
2018-12-15T20:00:32.922Z,17.93
2018-12-15T20:02:59.158Z,17.30
2018-12-15T20:05:25.725Z,16.20
2018-12-15T20:07:52.204Z,18.63
2018-12-15T20:10:18.403Z,17.10
2018-12-15T20:12:44.762Z,18.97
2018-12-15T20:15:10.933Z,16.03
2018-12-15T20:17:37.176Z,20.17
2018-12-15T20:20:08.301Z,15.93
2018-12-15T20:22:34.599Z,16.10
2018-12-15T20:25:01.031Z,17.73
2018-12-15T20:27:27.383Z,18.27
2018-12-15T20:29:53.719Z,18.20
2018-12-15T20:32:20.125Z,16.60
2018-12-15T20:34:46.518Z,16.03
2018-12-15T20:37:12.843Z,18.57
2018-12-15T20:39:38.953Z,15.93
2018-12-15T20:42:05.431Z,16.23
2018-12-15T20:44:31.683Z,18.50
2018-12-15T20:46:57.892Z,16.93
2018-12-15T20:49:24.209Z,16.43
2018-12-15T20:51:50.327Z,17.50
2018-12-15T20:54:17.206Z,18.50
2018-12-15T20:56:43.534Z,19.90
2018-12-15T20:59:09.688Z,19.30
2018-12-15T21:01:35.947Z,16.57
2018-12-15T21:04:02.323Z,20.97
2018-12-15T21:06:28.407Z,17.60
2018-12-15T21:08:54.919Z,18.73
2018-12-15T21:11:24.159Z,18.90
2018-12-15T21:13:49.631Z,16.30
2018-12-15T21:16:15.917Z,17.63
2018-12-15T21:18:42.318Z,16.03
2018-12-15T21:21:08.602Z,17.43
2018-12-15T21:23:34.765Z,16.63
2018-12-15T21:26:01.191Z,19.87
2018-12-15T21:28:27.527Z,16.00
2018-12-15T21:30:54.270Z,18.43
2018-12-15T21:33:21.172Z,16.00
2018-12-15T21:35:47.457Z,15.87
2018-12-15T21:38:13.743Z,18.20
2018-12-15T21:40:40.407Z,17.43
2018-12-15T21:43:15.230Z,18.27
2018-12-15T21:45:41.861Z,18.63
2018-12-15T21:48:08.114Z,17.23
2018-12-15T21:50:35.155Z,18.57
2018-12-15T21:53:06.446Z,18.50
2018-12-15T21:55:32.719Z,17.47
2018-12-15T21:57:58.820Z,20.97
2018-12-15T22:00:25.496Z,17.07
2018-12-15T22:02:51.879Z,19.23
2018-12-15T22:05:18.294Z,17.33
2018-12-15T22:07:44.697Z,17.67
2018-12-15T22:10:10.984Z,17.33
2018-12-15T22:12:37.278Z,21.60
2018-12-15T22:15:04.703Z,19.43
2018-12-15T22:17:30.972Z,18.70
2018-12-15T22:19:57.290Z,16.80
2018-12-15T22:22:23.832Z,18.13
2018-12-15T22:24:50.109Z,18.87
2018-12-15T22:27:16.288Z,15.43
2018-12-15T22:29:42.913Z,15.77
2018-12-15T22:32:09.716Z,18.40
2018-12-15T22:34:36.029Z,14.87
2018-12-15T22:37:02.841Z,18.00
2018-12-15T22:39:29.313Z,17.60
2018-12-15T22:41:55.599Z,17.53
2018-12-15T22:44:22.072Z,18.23
2018-12-15T22:46:48.130Z,17.93
2018-12-15T22:49:14.287Z,16.93
2018-12-15T22:51:40.783Z,18.00
2018-12-15T22:54:06.980Z,18.97
2018-12-15T22:56:33.127Z,17.40
2018-12-15T22:58:59.729Z,18.00
2018-12-15T23:01:25.983Z,14.40
2018-12-15T23:03:52.347Z,16.20
2018-12-15T23:06:18.843Z,17.97
2018-12-15T23:08:45.005Z,17.17
2018-12-15T23:11:11.398Z,16.17
2018-12-15T23:13:37.954Z,17.07
2018-12-15T23:16:04.187Z,15.93
2018-12-15T23:18:30.499Z,18.43
2018-12-15T23:20:56.822Z,17.53
2018-12-15T23:23:23.084Z,17.87
2018-12-15T23:25:49.313Z,16.97
2018-12-15T23:28:15.679Z,18.30
2018-12-15T23:30:42.249Z,18.90
2018-12-15T23:33:08.615Z,17.40
2018-12-15T23:35:35.295Z,17.23
2018-12-15T23:38:01.522Z,17.60
2018-12-15T23:40:27.812Z,15.43
2018-12-15T23:42:54.306Z,16.80
2018-12-15T23:45:20.590Z,16.93
2018-12-15T23:47:46.774Z,15.50
2018-12-15T23:50:13.138Z,19.10
2018-12-15T23:52:39.223Z,16.00
2018-12-15T23:55:05.501Z,15.10
2018-12-15T23:57:31.927Z,14.97
2018-12-15T23:59:58.256Z,14.80
